createdAt,value
2022-08-08T00:00:59.724Z,102338.69
2022-08-08T00:03:31.262Z,102339.59
2022-08-08T00:06:34.802Z,102331.66
2022-08-08T00:09:21.872Z,102338.00
2022-08-08T00:12:09.861Z,102332.03
2022-08-08T00:15:13.149Z,102336.47
2022-08-08T00:18:13.305Z,102336.53
2022-08-08T00:20:52.993Z,102336.66
2022-08-08T00:23:50.995Z,102343.75
2022-08-08T00:26:48.376Z,102343.00
2022-08-08T00:29:46.444Z,102335.13
2022-08-08T00:32:34.264Z,102345.78
2022-08-08T00:35:37.447Z,102348.59
2022-08-08T00:38:32.434Z,102351.25
2022-08-08T00:42:08.170Z,102351.31
2022-08-08T00:45:03.005Z,102354.97
2022-08-08T00:48:29.900Z,102347.22
2022-08-08T00:51:42.420Z,102351.72
2022-08-08T00:54:39.469Z,102340.28
2022-08-08T00:57:57.129Z,102343.03
2022-08-08T01:00:34.502Z,102348.50
2022-08-08T01:04:04.156Z,102346.72
2022-08-08T01:07:10.705Z,102335.22
2022-08-08T01:10:27.568Z,102337.09
2022-08-08T01:13:44.319Z,102334.47
2022-08-08T01:16:48.563Z,102331.91
2022-08-08T01:20:03.699Z,102334.59
2022-08-08T01:24:05.930Z,102333.75
2022-08-08T01:27:21.389Z,102333.94
2022-08-08T01:30:47.919Z,102331.34
2022-08-08T01:34:00.729Z,102325.25
2022-08-08T01:36:54.679Z,102329.75
2022-08-08T01:40:14.796Z,102328.91
2022-08-08T01:43:11.591Z,102332.53
2022-08-08T01:46:24.075Z,102332.53
2022-08-08T01:49:23.284Z,102335.25
2022-08-08T01:54:11.723Z,102326.50
2022-08-08T01:56:28.619Z,102331.03
2022-08-08T02:00:01.671Z,102325.84
2022-08-08T02:03:07.412Z,102326.81
2022-08-08T02:06:32.370Z,102324.25
2022-08-08T02:09:19.075Z,102333.13
2022-08-08T02:12:23.322Z,102324.34
2022-08-08T02:15:16.965Z,102328.03
2022-08-08T02:18:03.095Z,102328.94
2022-08-08T02:21:01.933Z,102328.13
2022-08-08T02:23:42.087Z,102337.91
2022-08-08T02:26:21.383Z,102328.25
2022-08-08T02:29:20.942Z,102330.03
2022-08-08T02:32:32.176Z,102325.75
2022-08-08T02:35:08.335Z,102332.00
2022-08-08T02:38:28.978Z,102326.66
2022-08-08T02:42:10.574Z,102324.16
2022-08-08T02:44:58.782Z,102336.53
2022-08-08T02:48:03.477Z,102341.88
2022-08-08T02:50:56.438Z,102333.97
2022-08-08T02:54:14.247Z,102334.00
2022-08-08T02:57:24.480Z,102327.91
2022-08-08T03:00:27.235Z,102335.91
2022-08-08T03:05:02.648Z,102334.22
2022-08-08T03:06:54.536Z,102334.31
2022-08-08T03:09:43.639Z,102332.63
2022-08-08T03:13:01.149Z,102326.50
2022-08-08T03:16:05.882Z,102316.84
2022-08-08T03:18:49.392Z,102337.16
2022-08-08T03:21:20.109Z,102335.47
2022-08-08T03:24:07.535Z,102343.47
2022-08-08T03:26:44.579Z,102341.81
2022-08-08T03:29:54.462Z,102333.91
2022-08-08T03:32:34.213Z,102330.34
2022-08-08T03:35:09.434Z,102338.34
2022-08-08T03:37:59.505Z,102345.41
2022-08-08T03:40:29.487Z,102341.03
2022-08-08T03:43:16.776Z,102353.41
2022-08-08T03:46:05.064Z,102349.91
2022-08-08T03:49:38.155Z,102352.59
2022-08-08T03:51:50.640Z,102349.94
2022-08-08T03:54:40.559Z,102360.53
2022-08-08T03:58:35.760Z,102355.28
2022-08-08T04:00:11.431Z,102356.19
2022-08-08T04:03:04.441Z,102358.00
2022-08-08T04:05:47.153Z,102360.69
2022-08-08T04:08:33.782Z,102368.63
2022-08-08T04:11:10.887Z,102366.06
2022-08-08T04:14:04.462Z,102370.44
2022-08-08T04:16:40.544Z,102365.94
2022-08-08T04:19:23.700Z,102373.84
2022-08-08T04:21:56.485Z,102373.00
2022-08-08T04:24:28.530Z,102374.69
2022-08-08T04:26:58.974Z,102376.44
2022-08-08T04:29:36.566Z,102386.13
2022-08-08T04:32:08.171Z,102385.16
2022-08-08T04:34:55.365Z,102379.72
2022-08-08T04:37:32.387Z,102386.69
2022-08-08T04:40:07.832Z,102383.13
2022-08-08T04:42:46.841Z,102387.44
2022-08-08T04:45:26.852Z,102384.69
2022-08-08T04:47:58.685Z,102385.56
2022-08-08T04:50:34.358Z,102389.06
2022-08-08T04:53:52.597Z,102386.41
2022-08-08T04:55:56.489Z,102390.72
2022-08-08T04:58:27.441Z,102392.41
2022-08-08T05:00:54.871Z,102399.38
2022-08-08T05:04:08.427Z,102400.97
2022-08-08T05:06:13.007Z,102403.47
2022-08-08T05:08:43.877Z,102402.44
2022-08-08T05:11:22.408Z,102407.63
2022-08-08T05:13:57.686Z,102410.06
2022-08-08T05:16:50.777Z,102406.31
2022-08-08T05:20:08.910Z,102403.63
2022-08-08T05:22:09.997Z,102407.09
2022-08-08T05:24:41.943Z,102405.13
2022-08-08T05:27:17.584Z,102409.41
2022-08-08T05:29:45.589Z,102410.03
2022-08-08T05:32:24.678Z,102414.53
2022-08-08T05:35:04.367Z,102409.31
2022-08-08T05:37:53.110Z,102402.72
2022-08-08T05:40:29.985Z,102397.94
2022-08-08T05:43:38.495Z,102392.13
2022-08-08T05:46:07.858Z,102404.38
2022-08-08T05:48:38.811Z,102408.69
2022-08-08T05:51:13.487Z,102405.50
2022-08-08T05:54:24.291Z,102403.19
2022-08-08T05:56:42.568Z,102415.69
2022-08-08T05:59:58.952Z,102406.97
2022-08-08T06:02:48.148Z,102415.72
2022-08-08T06:05:35.234Z,102425.88
2022-08-08T06:08:10.276Z,102418.56
2022-08-08T06:10:59.018Z,102426.88
2022-08-08T06:13:30.029Z,102416.81
2022-08-08T06:16:06.681Z,102422.22
2022-08-08T06:18:55.224Z,102426.53
2022-08-08T06:21:32.458Z,102440.91
2022-08-08T06:24:05.081Z,102435.72
2022-08-08T06:26:45.361Z,102441.97
2022-08-08T06:30:02.175Z,102440.91
2022-08-08T06:32:52.826Z,102451.56
2022-08-08T06:36:07.863Z,102450.47
2022-08-08T06:38:18.647Z,102453.16
2022-08-08T06:40:54.019Z,102451.91
2022-08-08T06:43:34.380Z,102454.25
2022-08-08T06:46:14.315Z,102446.94
2022-08-08T06:48:46.033Z,102448.44
2022-08-08T06:51:15.742Z,102450.84
2022-08-08T06:53:51.347Z,102462.22
2022-08-08T06:56:31.339Z,102454.53
2022-08-08T06:58:59.577Z,102458.75
2022-08-08T07:02:26.942Z,102463.72
2022-08-08T07:04:52.164Z,102459.66
2022-08-08T07:07:49.158Z,102461.28
2022-08-08T07:10:23.959Z,102454.69
2022-08-08T07:13:06.194Z,102447.88
2022-08-08T07:16:10.616Z,102455.72
2022-08-08T07:19:31.463Z,102458.59
2022-08-08T07:22:12.068Z,102462.78
2022-08-08T07:25:01.638Z,102464.34
2022-08-08T07:27:47.231Z,102470.28
2022-08-08T07:30:26.516Z,102461.06
2022-08-08T07:33:00.981Z,102464.44
2022-08-08T07:35:31.225Z,102464.28
2022-08-08T07:38:10.616Z,102465.84
2022-08-08T07:40:58.834Z,102463.59
2022-08-08T07:43:37.018Z,102467.22
2022-08-08T07:46:24.148Z,102471.25
2022-08-08T07:48:58.560Z,102477.41
2022-08-08T07:51:44.284Z,102468.50
2022-08-08T07:54:33.198Z,102475.75
2022-08-08T07:57:19.837Z,102478.72
2022-08-08T08:00:16.756Z,102487.00
2022-08-08T08:03:23.390Z,102483.97
2022-08-08T08:05:56.018Z,102481.66
2022-08-08T08:08:54.968Z,102485.28
2022-08-08T08:11:38.113Z,102489.09
2022-08-08T08:14:54.076Z,102486.47
2022-08-08T08:17:25.369Z,102489.09
2022-08-08T08:20:04.850Z,102502.69
2022-08-08T08:22:33.840Z,102495.56
2022-08-08T08:25:07.473Z,102499.88
2022-08-08T08:27:36.478Z,102492.28
2022-08-08T08:30:05.895Z,102492.25
2022-08-08T08:32:40.946Z,102495.28
2022-08-08T08:35:17.760Z,102499.31
2022-08-08T08:38:13.605Z,102505.75
2022-08-08T08:40:38.370Z,102501.75
2022-08-08T08:43:11.941Z,102502.38
2022-08-08T08:45:48.498Z,102499.44
2022-08-08T08:48:20.320Z,102500.13
2022-08-08T08:50:54.004Z,102495.34
2022-08-08T08:53:54.617Z,102515.38
2022-08-08T08:56:24.079Z,102505.50
2022-08-08T08:58:56.577Z,102506.47
2022-08-08T09:01:37.548Z,102509.38
2022-08-08T09:04:38.093Z,102502.75
2022-08-08T09:07:23.902Z,102508.69
2022-08-08T09:10:17.006Z,102510.44
2022-08-08T09:12:47.511Z,102502.16
2022-08-08T09:15:40.975Z,102506.81
2022-08-08T09:18:07.480Z,102501.44
2022-08-08T09:22:02.280Z,102504.03
2022-08-08T09:23:37.994Z,102499.53
2022-08-08T09:26:56.976Z,102496.34
2022-08-08T09:29:25.595Z,102491.50
2022-08-08T09:32:12.138Z,102491.91
2022-08-08T09:34:51.395Z,102497.56
2022-08-08T09:37:59.002Z,102497.19
2022-08-08T09:40:40.709Z,102498.50
2022-08-08T09:44:03.042Z,102501.75
2022-08-08T09:46:30.819Z,102493.06
2022-08-08T09:49:18.520Z,102493.69
2022-08-08T09:52:01.899Z,102486.31
2022-08-08T09:54:45.884Z,102486.88
2022-08-08T09:57:37.968Z,102496.38
2022-08-08T10:00:48.677Z,102492.53
2022-08-08T10:03:06.097Z,102482.47
2022-08-08T10:05:37.902Z,102489.03
2022-08-08T10:08:08.402Z,102485.88
2022-08-08T10:10:49.996Z,102486.78
2022-08-08T10:13:32.329Z,102487.63
2022-08-08T10:16:05.306Z,102488.53
2022-08-08T10:18:36.406Z,102486.19
2022-08-08T10:21:25.405Z,102490.59
2022-08-08T10:24:03.911Z,102484.22
2022-08-08T10:26:59.717Z,102495.88
2022-08-08T10:29:57.114Z,102488.78
2022-08-08T10:32:32.504Z,102489.41
2022-08-08T10:36:01.964Z,102488.91
2022-08-08T10:38:08.522Z,102490.19
2022-08-08T10:40:39.033Z,102482.00
2022-08-08T10:43:07.175Z,102487.56
2022-08-08T10:45:55.031Z,102484.41
2022-08-08T10:48:56.906Z,102473.63
2022-08-08T10:51:31.176Z,102478.72
2022-08-08T10:54:02.286Z,102473.78
2022-08-08T10:56:35.634Z,102474.16
2022-08-08T10:59:09.165Z,102478.59
2022-08-08T11:01:39.264Z,102475.31
2022-08-08T11:04:10.800Z,102470.59
2022-08-08T11:06:41.940Z,102468.03
2022-08-08T11:09:21.592Z,102473.72
2022-08-08T11:12:04.829Z,102470.81
2022-08-08T11:15:00.455Z,102474.97
2022-08-08T11:17:59.386Z,102470.16
2022-08-08T11:20:27.403Z,102467.28
2022-08-08T11:22:59.748Z,102459.13
2022-08-08T11:25:52.279Z,102460.22
2022-08-08T11:28:25.796Z,102466.00
2022-08-08T11:30:59.698Z,102462.31
2022-08-08T11:33:53.103Z,102459.53
2022-08-08T11:36:18.794Z,102469.34
2022-08-08T11:38:55.511Z,102459.66
2022-08-08T11:41:32.335Z,102451.56
2022-08-08T11:44:01.214Z,102448.75
2022-08-08T11:46:32.525Z,102443.97
2022-08-08T11:49:14.250Z,102444.75
2022-08-08T11:51:50.697Z,102439.03
2022-08-08T11:54:33.571Z,102443.13
2022-08-08T11:57:35.170Z,102439.69
2022-08-08T12:00:07.817Z,102435.59
2022-08-08T12:02:54.808Z,102438.03
2022-08-08T12:05:38.763Z,102427.69
2022-08-08T12:08:06.117Z,102422.31
2022-08-08T12:10:33.950Z,102425.41
2022-08-08T12:13:09.650Z,102433.53
2022-08-08T12:15:46.780Z,102433.41
2022-08-08T12:18:27.137Z,102427.38
2022-08-08T12:20:59.436Z,102438.16
2022-08-08T12:23:42.762Z,102428.13
2022-08-08T12:26:17.091Z,102425.84
2022-08-08T12:28:58.486Z,102428.88
2022-08-08T12:31:39.479Z,102440.31
2022-08-08T12:34:36.910Z,102428.88
2022-08-08T12:37:08.457Z,102422.38
2022-08-08T12:40:00.702Z,102423.09
2022-08-08T12:42:27.386Z,102420.78
2022-08-08T12:45:54.691Z,102418.38
2022-08-08T12:48:36.987Z,102417.22
2022-08-08T12:51:10.786Z,102420.47
2022-08-08T12:54:01.955Z,102422.78
2022-08-08T12:56:39.992Z,102419.06
2022-08-08T12:59:27.312Z,102427.09
2022-08-08T13:02:06.740Z,102433.75
2022-08-08T13:04:34.506Z,102425.06
2022-08-08T13:07:11.829Z,102424.03
2022-08-08T13:10:05.322Z,102420.34
2022-08-08T13:12:47.126Z,102415.28
2022-08-08T13:15:19.496Z,102414.78
2022-08-08T13:18:08.814Z,102409.59
2022-08-08T13:20:45.854Z,102419.72
2022-08-08T13:23:30.658Z,102422.53
2022-08-08T13:26:12.653Z,102416.50
2022-08-08T13:28:42.475Z,102412.44
2022-08-08T13:31:16.579Z,102409.75
2022-08-08T13:33:50.843Z,102413.00
2022-08-08T13:36:26.375Z,102402.53
2022-08-08T13:39:00.117Z,102414.34
2022-08-08T13:41:28.430Z,102393.84
2022-08-08T13:44:10.780Z,102392.59
2022-08-08T13:46:39.260Z,102400.84
2022-08-08T13:50:33.605Z,102391.19
2022-08-08T13:52:07.676Z,102392.47
2022-08-08T13:54:44.056Z,102396.88
2022-08-08T13:57:15.279Z,102386.78
2022-08-08T13:59:49.062Z,102396.88
2022-08-08T14:02:32.826Z,102398.91
2022-08-08T14:05:20.506Z,102391.63
2022-08-08T14:07:52.358Z,102386.59
2022-08-08T14:10:33.287Z,102380.78
2022-08-08T14:13:30.870Z,102385.50
2022-08-08T14:16:15.917Z,102374.84
2022-08-08T14:19:00.547Z,102386.41
2022-08-08T14:21:48.948Z,102386.94
2022-08-08T14:24:32.434Z,102385.69
2022-08-08T14:26:59.596Z,102390.44
2022-08-08T14:29:30.535Z,102389.06
2022-08-08T14:32:10.643Z,102384.63
2022-08-08T14:34:42.602Z,102380.75
2022-08-08T14:37:17.752Z,102371.66
2022-08-08T14:40:06.137Z,102376.25
2022-08-08T14:42:47.282Z,102383.22
2022-08-08T14:46:01.196Z,102377.97
2022-08-08T14:48:17.765Z,102378.91
2022-08-08T14:51:06.773Z,102378.53
2022-08-08T14:53:54.471Z,102373.53
2022-08-08T14:56:27.039Z,102371.16
2022-08-08T14:58:56.508Z,102372.88
2022-08-08T15:01:40.647Z,102378.16
2022-08-08T15:04:11.345Z,102382.06
2022-08-08T15:06:39.131Z,102371.84
2022-08-08T15:09:09.599Z,102381.88
2022-08-08T15:11:46.088Z,102377.66
2022-08-08T15:14:26.320Z,102383.03
2022-08-08T15:16:55.114Z,102374.91
2022-08-08T15:19:27.850Z,102370.41
2022-08-08T15:21:55.488Z,102371.47
2022-08-08T15:24:31.169Z,102379.25
2022-08-08T15:27:12.130Z,102375.41
2022-08-08T15:29:47.452Z,102370.97
2022-08-08T15:32:20.732Z,102363.56
2022-08-08T15:34:50.173Z,102368.00
2022-08-08T15:37:19.156Z,102367.16
2022-08-08T15:39:47.959Z,102370.59
2022-08-08T15:42:31.951Z,102364.03
2022-08-08T15:45:02.308Z,102368.31
2022-08-08T15:47:31.275Z,102370.19
2022-08-08T15:49:59.461Z,102364.91
2022-08-08T15:52:26.584Z,102368.06
2022-08-08T15:54:53.748Z,102368.25
2022-08-08T15:57:23.185Z,102362.44
2022-08-08T16:00:06.225Z,102356.88
2022-08-08T16:02:44.500Z,102357.19
2022-08-08T16:05:21.223Z,102352.31
2022-08-08T16:07:51.203Z,102349.34
2022-08-08T16:13:11.641Z,102363.03
2022-08-08T16:13:29.948Z,102356.00
2022-08-08T16:16:12.782Z,102360.31
2022-08-08T16:18:57.279Z,102358.84
2022-08-08T16:21:30.545Z,102359.59
2022-08-08T16:24:03.477Z,102354.50
2022-08-08T16:26:37.693Z,102358.59
2022-08-08T16:29:15.395Z,102361.31
2022-08-08T16:31:49.225Z,102356.94
2022-08-08T16:34:21.835Z,102364.38
2022-08-08T16:36:52.007Z,102362.50
2022-08-08T16:39:27.928Z,102366.31
2022-08-08T16:42:17.608Z,102357.78
2022-08-08T16:44:54.453Z,102364.16
2022-08-08T16:47:40.655Z,102365.00
2022-08-08T16:50:16.692Z,102367.00
2022-08-08T16:55:01.630Z,102363.94
2022-08-08T16:55:53.199Z,102366.28
2022-08-08T16:58:26.741Z,102373.00
2022-08-08T17:00:57.948Z,102358.63
2022-08-08T17:03:59.804Z,102364.34
2022-08-08T17:06:37.124Z,102372.59
2022-08-08T17:09:00.758Z,102371.00
2022-08-08T17:11:39.440Z,102371.31
2022-08-08T17:14:19.612Z,102359.25
2022-08-08T17:16:57.766Z,102366.06
2022-08-08T17:19:29.583Z,102358.63
2022-08-08T17:22:01.423Z,102362.88
2022-08-08T17:24:31.090Z,102363.47
2022-08-08T17:27:02.486Z,102365.44
2022-08-08T17:29:33.969Z,102367.91
2022-08-08T17:32:07.713Z,102385.19
2022-08-08T17:34:59.913Z,102375.47
2022-08-08T17:37:25.644Z,102384.59
2022-08-08T17:40:10.987Z,102383.38
2022-08-08T17:42:47.135Z,102387.56
2022-08-08T17:45:22.887Z,102380.41
2022-08-08T17:47:51.394Z,102381.63
2022-08-08T17:50:18.543Z,102381.25
2022-08-08T17:52:47.625Z,102385.34
2022-08-08T17:56:06.727Z,102390.06
2022-08-08T17:58:03.231Z,102386.13
2022-08-08T18:00:31.779Z,102385.81
2022-08-08T18:03:08.478Z,102390.78
2022-08-08T18:05:48.588Z,102396.56
2022-08-08T18:08:25.114Z,102399.22
2022-08-08T18:11:16.956Z,102406.06
2022-08-08T18:13:47.032Z,102400.22
2022-08-08T18:16:20.282Z,102408.19
2022-08-08T18:18:56.364Z,102405.59
2022-08-08T18:21:58.769Z,102405.66
2022-08-08T18:24:21.798Z,102407.47
2022-08-08T18:26:56.666Z,102404.91
2022-08-08T18:29:30.031Z,102398.00
2022-08-08T18:32:07.417Z,102404.38
2022-08-08T18:34:37.698Z,102418.13
2022-08-08T18:37:08.310Z,102418.88
2022-08-08T18:39:41.949Z,102413.91
2022-08-08T18:42:15.816Z,102420.63
2022-08-08T18:44:56.063Z,102421.88
2022-08-08T18:47:33.546Z,102425.97
2022-08-08T18:50:02.880Z,102436.00
2022-08-08T18:52:33.862Z,102426.66
2022-08-08T18:55:10.745Z,102429.19
2022-08-08T18:57:43.333Z,102438.16
2022-08-08T19:00:20.674Z,102430.34
2022-08-08T19:02:56.846Z,102441.75
2022-08-08T19:05:32.144Z,102448.22
2022-08-08T19:08:25.429Z,102454.75
2022-08-08T19:10:59.875Z,102461.03
2022-08-08T19:13:38.444Z,102461.78
2022-08-08T19:16:20.217Z,102461.72
2022-08-08T19:19:00.284Z,102469.47
2022-08-08T19:21:33.544Z,102484.25
2022-08-08T19:24:39.442Z,102482.16
2022-08-08T19:27:02.980Z,102482.63
2022-08-08T19:29:31.263Z,102487.56
2022-08-08T19:32:01.583Z,102494.19
2022-08-08T19:34:36.061Z,102499.09
2022-08-08T19:37:06.048Z,102495.97
2022-08-08T19:39:35.248Z,102493.75
2022-08-08T19:42:05.324Z,102502.13
2022-08-08T19:44:45.696Z,102503.38
2022-08-08T19:47:14.530Z,102510.00
2022-08-08T19:49:43.164Z,102507.56
2022-08-08T19:52:13.533Z,102515.16
2022-08-08T19:54:43.059Z,102514.56
2022-08-08T19:57:14.377Z,102520.22
2022-08-08T19:59:43.970Z,102521.28
2022-08-08T20:02:11.819Z,102520.63
2022-08-08T20:04:39.175Z,102521.78
2022-08-08T20:08:29.881Z,102517.63
2022-08-08T20:09:58.905Z,102525.13
2022-08-08T20:12:32.824Z,102523.69
2022-08-08T20:15:16.768Z,102528.34
2022-08-08T20:17:47.478Z,102529.56
2022-08-08T20:20:20.554Z,102529.88
2022-08-08T20:22:52.614Z,102531.88
2022-08-08T20:25:22.227Z,102525.91
2022-08-08T20:27:54.264Z,102526.19
2022-08-08T20:30:52.878Z,102529.84
2022-08-08T20:33:19.812Z,102538.94
2022-08-08T20:35:56.877Z,102541.00
2022-08-08T20:38:29.192Z,102536.84
2022-08-08T20:41:16.882Z,102543.19
2022-08-08T20:43:49.627Z,102538.91
2022-08-08T20:46:21.017Z,102534.75
2022-08-08T20:48:55.524Z,102535.78
2022-08-08T20:51:27.261Z,102534.97
2022-08-08T20:54:09.275Z,102531.56
2022-08-08T20:57:04.507Z,102536.34
2022-08-08T20:59:29.296Z,102528.41
2022-08-08T21:02:06.317Z,102533.13
2022-08-08T21:04:36.637Z,102536.63
2022-08-08T21:07:13.896Z,102539.50
2022-08-08T21:10:01.823Z,102544.16
2022-08-08T21:12:36.114Z,102533.84
2022-08-08T21:15:09.476Z,102539.16
2022-08-08T21:17:38.018Z,102548.31
2022-08-08T21:20:07.904Z,102539.63
2022-08-08T21:22:35.768Z,102536.22
2022-08-08T21:25:13.618Z,102540.91
2022-08-08T21:28:13.308Z,102542.69
2022-08-08T21:30:28.523Z,102538.50
2022-08-08T21:32:57.307Z,102533.34
2022-08-08T21:36:14.675Z,102529.84
2022-08-08T21:38:17.111Z,102536.25
2022-08-08T21:40:55.449Z,102537.34
2022-08-08T21:43:33.317Z,102530.28
2022-08-08T21:48:20.132Z,102537.63
2022-08-08T21:48:53.441Z,102541.31
2022-08-08T21:52:38.928Z,102537.03
2022-08-08T21:54:32.945Z,102539.72
2022-08-08T21:57:00.291Z,102547.91
2022-08-08T22:00:01.337Z,102541.81
2022-08-08T22:02:16.012Z,102551.66
2022-08-08T22:04:43.424Z,102557.22
2022-08-08T22:07:10.727Z,102565.31
2022-08-08T22:09:41.309Z,102560.00
2022-08-08T22:12:16.843Z,102559.28
2022-08-08T22:14:47.339Z,102565.56
2022-08-08T22:17:18.349Z,102568.31
2022-08-08T22:20:12.171Z,102564.78
2022-08-08T22:22:38.195Z,102564.03
2022-08-08T22:25:19.584Z,102564.09
2022-08-08T22:28:02.587Z,102560.69
2022-08-08T22:30:33.546Z,102563.34
2022-08-08T22:33:01.855Z,102568.75
2022-08-08T22:36:05.453Z,102568.00
2022-08-08T22:38:17.541Z,102568.91
2022-08-08T22:40:45.484Z,102564.59
2022-08-08T22:43:17.705Z,102569.13
2022-08-08T22:45:46.718Z,102565.63
2022-08-08T22:48:21.604Z,102574.50
2022-08-08T22:50:48.927Z,102568.47
2022-08-08T22:54:28.481Z,102563.97
2022-08-08T22:56:03.944Z,102578.34
2022-08-08T22:58:35.314Z,102584.69
2022-08-08T23:02:00.690Z,102584.69
2022-08-08T23:03:56.552Z,102583.00
2022-08-08T23:06:25.789Z,102589.19
2022-08-08T23:08:58.606Z,102588.50
2022-08-08T23:11:30.843Z,102588.53
2022-08-08T23:14:21.056Z,102585.06
2022-08-08T23:16:54.904Z,102582.53
2022-08-08T23:19:32.253Z,102581.72
2022-08-08T23:22:06.480Z,102591.53
2022-08-08T23:24:41.463Z,102584.53
2022-08-08T23:27:17.275Z,102583.59
2022-08-08T23:29:59.189Z,102585.53
2022-08-08T23:32:26.534Z,102582.03
2022-08-08T23:34:59.242Z,102582.09
2022-08-08T23:37:54.265Z,102582.16
2022-08-08T23:40:16.453Z,102571.66
2022-08-08T23:42:49.120Z,102581.50
2022-08-08T23:45:18.507Z,102580.56
2022-08-08T23:49:08.144Z,102586.94
2022-08-08T23:50:57.237Z,102586.16
2022-08-08T23:53:30.877Z,102587.06
2022-08-08T23:56:12.074Z,102581.81
2022-08-08T23:58:39.309Z,102578.38
